sensor_id;sensor_type;location;lat;lon;timestamp;temperature;humidity
73777;DHT22;62088;50.240;2.696;2022-10-18T00:00:06;15.90;84.30
73777;DHT22;62088;50.240;2.696;2022-10-18T00:02:36;15.90;84.30
73777;DHT22;62088;50.240;2.696;2022-10-18T00:05:04;15.90;84.30
73777;DHT22;62088;50.240;2.696;2022-10-18T00:07:31;15.90;84.30
73777;DHT22;62088;50.240;2.696;2022-10-18T00:09:58;15.90;84.30
73777;DHT22;62088;50.240;2.696;2022-10-18T00:12:25;15.90;84.30
73777;DHT22;62088;50.240;2.696;2022-10-18T00:14:52;15.90;84.30
73777;DHT22;62088;50.240;2.696;2022-10-18T00:17:19;15.80;84.30
73777;DHT22;62088;50.240;2.696;2022-10-18T00:19:46;15.90;84.30
73777;DHT22;62088;50.240;2.696;2022-10-18T00:22:14;15.80;84.30
73777;DHT22;62088;50.240;2.696;2022-10-18T00:24:41;15.90;84.30
73777;DHT22;62088;50.240;2.696;2022-10-18T00:27:08;15.80;84.30
73777;DHT22;62088;50.240;2.696;2022-10-18T00:29:35;15.80;84.30
73777;DHT22;62088;50.240;2.696;2022-10-18T00:32:03;15.90;84.20
73777;DHT22;62088;50.240;2.696;2022-10-18T00:34:30;15.80;84.20
73777;DHT22;62088;50.240;2.696;2022-10-18T00:36:57;15.80;84.20
73777;DHT22;62088;50.240;2.696;2022-10-18T00:39:24;15.80;84.20
73777;DHT22;62088;50.240;2.696;2022-10-18T00:41:51;15.80;84.20
73777;DHT22;62088;50.240;2.696;2022-10-18T00:46:54;15.80;84.10
73777;DHT22;62088;50.240;2.696;2022-10-18T00:52:11;15.70;84.10
73777;DHT22;62088;50.240;2.696;2022-10-18T00:54:41;15.70;84.10
73777;DHT22;62088;50.240;2.696;2022-10-18T00:57:09;15.60;84.00
73777;DHT22;62088;50.240;2.696;2022-10-18T00:59:37;15.60;83.90
73777;DHT22;62088;50.240;2.696;2022-10-18T01:02:05;15.60;83.80
73777;DHT22;62088;50.240;2.696;2022-10-18T01:04:33;15.60;83.90
73777;DHT22;62088;50.240;2.696;2022-10-18T01:10:03;15.50;84.00
73777;DHT22;62088;50.240;2.696;2022-10-18T01:15:29;15.50;84.10
73777;DHT22;62088;50.240;2.696;2022-10-18T01:29:17;15.40;84.40
73777;DHT22;62088;50.240;2.696;2022-10-18T01:31:58;15.40;84.40
73777;DHT22;62088;50.240;2.696;2022-10-18T01:34:31;15.40;84.50
73777;DHT22;62088;50.240;2.696;2022-10-18T01:37:01;15.40;84.60
73777;DHT22;62088;50.240;2.696;2022-10-18T01:39:33;15.40;84.70
73777;DHT22;62088;50.240;2.696;2022-10-18T01:42:05;15.40;84.70
73777;DHT22;62088;50.240;2.696;2022-10-18T01:44:34;15.50;84.80
73777;DHT22;62088;50.240;2.696;2022-10-18T01:47:03;15.40;84.80
73777;DHT22;62088;50.240;2.696;2022-10-18T01:49:32;15.40;84.80
73777;DHT22;62088;50.240;2.696;2022-10-18T01:52:00;15.40;84.80
73777;DHT22;62088;50.240;2.696;2022-10-18T01:54:31;15.50;84.80
73777;DHT22;62088;50.240;2.696;2022-10-18T02:02:53;15.50;84.90
73777;DHT22;62088;50.240;2.696;2022-10-18T02:05:13;15.50;84.90
73777;DHT22;62088;50.240;2.696;2022-10-18T02:10:12;15.50;85.00
73777;DHT22;62088;50.240;2.696;2022-10-18T02:12:47;15.50;85.00
73777;DHT22;62088;50.240;2.696;2022-10-18T02:15:17;15.50;85.00
73777;DHT22;62088;50.240;2.696;2022-10-18T02:17:46;15.50;85.00
73777;DHT22;62088;50.240;2.696;2022-10-18T02:20:16;15.60;85.00
73777;DHT22;62088;50.240;2.696;2022-10-18T02:22:46;15.60;85.00
73777;DHT22;62088;50.240;2.696;2022-10-18T02:25:21;15.60;85.00
73777;DHT22;62088;50.240;2.696;2022-10-18T02:27:53;15.60;85.00
73777;DHT22;62088;50.240;2.696;2022-10-18T02:30:27;15.60;85.00
73777;DHT22;62088;50.240;2.696;2022-10-18T02:33:21;15.60;85.00
73777;DHT22;62088;50.240;2.696;2022-10-18T02:35:51;15.60;84.90
73777;DHT22;62088;50.240;2.696;2022-10-18T02:38:22;15.60;84.90
73777;DHT22;62088;50.240;2.696;2022-10-18T02:40:50;15.60;84.90
73777;DHT22;62088;50.240;2.696;2022-10-18T02:43:17;15.60;85.00
73777;DHT22;62088;50.240;2.696;2022-10-18T02:45:44;15.60;85.00
73777;DHT22;62088;50.240;2.696;2022-10-18T02:48:11;15.60;85.00
73777;DHT22;62088;50.240;2.696;2022-10-18T02:50:38;15.60;85.10
73777;DHT22;62088;50.240;2.696;2022-10-18T02:53:05;15.60;85.10
73777;DHT22;62088;50.240;2.696;2022-10-18T02:55:32;15.60;85.10
73777;DHT22;62088;50.240;2.696;2022-10-18T02:58:00;15.60;85.10
73777;DHT22;62088;50.240;2.696;2022-10-18T03:00:27;15.60;85.10
73777;DHT22;62088;50.240;2.696;2022-10-18T03:02:54;15.60;85.10
73777;DHT22;62088;50.240;2.696;2022-10-18T03:05:21;15.70;85.10
73777;DHT22;62088;50.240;2.696;2022-10-18T03:07:48;15.60;85.00
73777;DHT22;62088;50.240;2.696;2022-10-18T03:10:15;15.70;85.00
73777;DHT22;62088;50.240;2.696;2022-10-18T03:12:41;15.70;85.00
73777;DHT22;62088;50.240;2.696;2022-10-18T03:15:09;15.70;85.10
73777;DHT22;62088;50.240;2.696;2022-10-18T03:17:36;15.70;85.00
73777;DHT22;62088;50.240;2.696;2022-10-18T03:20:03;15.70;85.10
73777;DHT22;62088;50.240;2.696;2022-10-18T03:22:30;15.70;85.00
73777;DHT22;62088;50.240;2.696;2022-10-18T03:24:57;15.70;85.00
73777;DHT22;62088;50.240;2.696;2022-10-18T03:27:24;15.70;85.10
73777;DHT22;62088;50.240;2.696;2022-10-18T03:29:51;15.70;85.00
73777;DHT22;62088;50.240;2.696;2022-10-18T03:32:18;15.70;85.00
73777;DHT22;62088;50.240;2.696;2022-10-18T03:34:45;15.70;85.00
73777;DHT22;62088;50.240;2.696;2022-10-18T03:37:12;15.70;85.00
73777;DHT22;62088;50.240;2.696;2022-10-18T03:39:39;15.70;85.00
73777;DHT22;62088;50.240;2.696;2022-10-18T03:42:06;15.60;85.00
73777;DHT22;62088;50.240;2.696;2022-10-18T03:44:33;15.60;85.10
73777;DHT22;62088;50.240;2.696;2022-10-18T03:47:00;15.70;85.10
73777;DHT22;62088;50.240;2.696;2022-10-18T03:49:27;15.70;85.10
73777;DHT22;62088;50.240;2.696;2022-10-18T03:51:53;15.60;85.10
73777;DHT22;62088;50.240;2.696;2022-10-18T03:54:20;15.60;85.10
73777;DHT22;62088;50.240;2.696;2022-10-18T03:56:47;15.70;85.20
73777;DHT22;62088;50.240;2.696;2022-10-18T03:59:14;15.60;85.20
73777;DHT22;62088;50.240;2.696;2022-10-18T04:01:42;15.70;85.30
73777;DHT22;62088;50.240;2.696;2022-10-18T04:04:09;15.70;85.30
73777;DHT22;62088;50.240;2.696;2022-10-18T04:06:36;15.60;85.30
73777;DHT22;62088;50.240;2.696;2022-10-18T04:09:03;15.70;85.30
73777;DHT22;62088;50.240;2.696;2022-10-18T04:11:35;15.60;85.30
73777;DHT22;62088;50.240;2.696;2022-10-18T04:14:02;15.60;85.40
73777;DHT22;62088;50.240;2.696;2022-10-18T04:16:29;15.60;85.40
73777;DHT22;62088;50.240;2.696;2022-10-18T04:18:56;15.70;85.40
73777;DHT22;62088;50.240;2.696;2022-10-18T04:21:23;15.60;85.40
73777;DHT22;62088;50.240;2.696;2022-10-18T04:23:50;15.70;85.40
73777;DHT22;62088;50.240;2.696;2022-10-18T04:26:18;15.70;85.40
73777;DHT22;62088;50.240;2.696;2022-10-18T04:28:44;15.70;85.40
73777;DHT22;62088;50.240;2.696;2022-10-18T04:31:11;15.70;85.40
73777;DHT22;62088;50.240;2.696;2022-10-18T04:33:38;15.70;85.30
73777;DHT22;62088;50.240;2.696;2022-10-18T04:36:06;15.70;85.40
73777;DHT22;62088;50.240;2.696;2022-10-18T04:38:33;15.70;85.30
73777;DHT22;62088;50.240;2.696;2022-10-18T04:41:00;15.70;85.30
73777;DHT22;62088;50.240;2.696;2022-10-18T04:43:27;15.70;85.30
73777;DHT22;62088;50.240;2.696;2022-10-18T04:45:54;15.70;85.40
73777;DHT22;62088;50.240;2.696;2022-10-18T04:48:21;15.70;85.40
73777;DHT22;62088;50.240;2.696;2022-10-18T04:50:49;15.70;85.50
73777;DHT22;62088;50.240;2.696;2022-10-18T04:53:17;15.70;85.50
73777;DHT22;62088;50.240;2.696;2022-10-18T04:55:48;15.70;85.50
73777;DHT22;62088;50.240;2.696;2022-10-18T04:58:18;15.70;85.60
73777;DHT22;62088;50.240;2.696;2022-10-18T05:00:45;15.70;85.70
73777;DHT22;62088;50.240;2.696;2022-10-18T05:03:13;15.70;85.70
73777;DHT22;62088;50.240;2.696;2022-10-18T05:05:40;15.70;85.70
73777;DHT22;62088;50.240;2.696;2022-10-18T05:08:28;15.60;85.80
73777;DHT22;62088;50.240;2.696;2022-10-18T05:10:55;15.60;85.80
73777;DHT22;62088;50.240;2.696;2022-10-18T05:13:22;15.70;85.80
73777;DHT22;62088;50.240;2.696;2022-10-18T05:15:49;15.70;85.90
73777;DHT22;62088;50.240;2.696;2022-10-18T05:18:16;15.70;85.90
73777;DHT22;62088;50.240;2.696;2022-10-18T05:20:43;15.70;85.90
73777;DHT22;62088;50.240;2.696;2022-10-18T05:23:10;15.70;85.90
73777;DHT22;62088;50.240;2.696;2022-10-18T05:25:38;15.70;86.00
73777;DHT22;62088;50.240;2.696;2022-10-18T05:28:06;15.60;86.00
73777;DHT22;62088;50.240;2.696;2022-10-18T05:30:41;15.70;86.00
73777;DHT22;62088;50.240;2.696;2022-10-18T05:33:08;15.70;86.00
73777;DHT22;62088;50.240;2.696;2022-10-18T05:35:35;15.60;86.00
73777;DHT22;62088;50.240;2.696;2022-10-18T05:38:06;15.70;85.90
73777;DHT22;62088;50.240;2.696;2022-10-18T05:40:33;15.70;86.00
73777;DHT22;62088;50.240;2.696;2022-10-18T05:43:00;15.70;85.90
73777;DHT22;62088;50.240;2.696;2022-10-18T05:45:27;15.70;85.90
73777;DHT22;62088;50.240;2.696;2022-10-18T05:47:54;15.70;85.90
73777;DHT22;62088;50.240;2.696;2022-10-18T05:50:21;15.70;85.80
73777;DHT22;62088;50.240;2.696;2022-10-18T05:52:48;15.70;85.80
73777;DHT22;62088;50.240;2.696;2022-10-18T05:55:15;15.70;85.80
73777;DHT22;62088;50.240;2.696;2022-10-18T05:57:42;15.70;85.80
73777;DHT22;62088;50.240;2.696;2022-10-18T06:00:09;15.70;85.80
73777;DHT22;62088;50.240;2.696;2022-10-18T06:02:40;15.70;85.80
73777;DHT22;62088;50.240;2.696;2022-10-18T06:05:07;15.70;85.80
73777;DHT22;62088;50.240;2.696;2022-10-18T06:07:35;15.70;85.80
73777;DHT22;62088;50.240;2.696;2022-10-18T06:10:02;15.70;85.80
73777;DHT22;62088;50.240;2.696;2022-10-18T06:12:29;15.70;85.80
73777;DHT22;62088;50.240;2.696;2022-10-18T06:14:56;15.70;85.80
73777;DHT22;62088;50.240;2.696;2022-10-18T06:17:23;15.70;85.80
73777;DHT22;62088;50.240;2.696;2022-10-18T06:19:53;15.70;85.80
73777;DHT22;62088;50.240;2.696;2022-10-18T06:22:20;15.70;85.80
73777;DHT22;62088;50.240;2.696;2022-10-18T06:24:47;15.70;85.90
73777;DHT22;62088;50.240;2.696;2022-10-18T06:27:14;15.70;85.80
73777;DHT22;62088;50.240;2.696;2022-10-18T06:29:41;15.70;85.80
73777;DHT22;62088;50.240;2.696;2022-10-18T06:32:08;15.70;85.80
73777;DHT22;62088;50.240;2.696;2022-10-18T06:34:35;15.70;85.80
73777;DHT22;62088;50.240;2.696;2022-10-18T06:37:02;15.70;85.80
73777;DHT22;62088;50.240;2.696;2022-10-18T06:39:29;15.70;85.80
73777;DHT22;62088;50.240;2.696;2022-10-18T06:41:56;15.70;85.80
73777;DHT22;62088;50.240;2.696;2022-10-18T06:44:23;15.70;85.80
73777;DHT22;62088;50.240;2.696;2022-10-18T06:46:50;15.70;85.80
73777;DHT22;62088;50.240;2.696;2022-10-18T06:49:19;15.70;85.80
73777;DHT22;62088;50.240;2.696;2022-10-18T06:51:46;15.70;85.90
73777;DHT22;62088;50.240;2.696;2022-10-18T06:54:14;15.70;85.90
73777;DHT22;62088;50.240;2.696;2022-10-18T06:56:45;15.70;86.00
73777;DHT22;62088;50.240;2.696;2022-10-18T06:59:12;15.70;86.00
73777;DHT22;62088;50.240;2.696;2022-10-18T07:01:39;15.70;86.00
73777;DHT22;62088;50.240;2.696;2022-10-18T07:04:06;15.80;86.10
73777;DHT22;62088;50.240;2.696;2022-10-18T07:06:33;15.70;86.10
73777;DHT22;62088;50.240;2.696;2022-10-18T07:09:00;15.70;86.10
73777;DHT22;62088;50.240;2.696;2022-10-18T07:11:28;15.80;86.10
73777;DHT22;62088;50.240;2.696;2022-10-18T07:13:59;15.80;86.10
73777;DHT22;62088;50.240;2.696;2022-10-18T07:16:31;15.80;86.20
73777;DHT22;62088;50.240;2.696;2022-10-18T07:18:58;15.80;86.20
73777;DHT22;62088;50.240;2.696;2022-10-18T07:21:26;15.80;86.20
73777;DHT22;62088;50.240;2.696;2022-10-18T07:23:53;15.80;86.30
73777;DHT22;62088;50.240;2.696;2022-10-18T07:26:26;15.80;86.30
73777;DHT22;62088;50.240;2.696;2022-10-18T07:28:59;15.80;86.40
73777;DHT22;62088;50.240;2.696;2022-10-18T07:31:28;15.80;86.40
73777;DHT22;62088;50.240;2.696;2022-10-18T07:33:56;15.90;86.40
73777;DHT22;62088;50.240;2.696;2022-10-18T07:36:23;15.80;86.40
73777;DHT22;62088;50.240;2.696;2022-10-18T07:38:51;15.90;86.40
73777;DHT22;62088;50.240;2.696;2022-10-18T07:41:19;15.90;86.50
73777;DHT22;62088;50.240;2.696;2022-10-18T07:43:48;15.90;86.50
73777;DHT22;62088;50.240;2.696;2022-10-18T07:46:18;15.90;86.50
73777;DHT22;62088;50.240;2.696;2022-10-18T07:48:45;15.90;86.50
73777;DHT22;62088;50.240;2.696;2022-10-18T07:51:12;15.90;86.60
73777;DHT22;62088;50.240;2.696;2022-10-18T07:53:39;15.90;86.60
73777;DHT22;62088;50.240;2.696;2022-10-18T07:56:12;15.90;86.60
73777;DHT22;62088;50.240;2.696;2022-10-18T07:58:43;15.90;86.60
73777;DHT22;62088;50.240;2.696;2022-10-18T08:01:12;15.90;86.60
73777;DHT22;62088;50.240;2.696;2022-10-18T08:03:40;16.00;86.60
73777;DHT22;62088;50.240;2.696;2022-10-18T08:06:08;16.00;86.60
73777;DHT22;62088;50.240;2.696;2022-10-18T08:08:38;16.00;86.60
73777;DHT22;62088;50.240;2.696;2022-10-18T08:11:08;16.00;86.50
73777;DHT22;62088;50.240;2.696;2022-10-18T08:13:36;16.00;86.50
73777;DHT22;62088;50.240;2.696;2022-10-18T08:16:08;16.00;86.50
73777;DHT22;62088;50.240;2.696;2022-10-18T08:18:36;16.00;86.40
73777;DHT22;62088;50.240;2.696;2022-10-18T08:21:05;16.00;86.40
73777;DHT22;62088;50.240;2.696;2022-10-18T08:23:32;16.00;86.40
73777;DHT22;62088;50.240;2.696;2022-10-18T08:26:01;16.00;86.40
73777;DHT22;62088;50.240;2.696;2022-10-18T08:28:28;16.00;86.30
73777;DHT22;62088;50.240;2.696;2022-10-18T08:30:55;16.00;86.30
73777;DHT22;62088;50.240;2.696;2022-10-18T08:33:22;16.00;86.20
73777;DHT22;62088;50.240;2.696;2022-10-18T08:36:00;16.00;86.20
73777;DHT22;62088;50.240;2.696;2022-10-18T08:38:32;16.10;86.20
73777;DHT22;62088;50.240;2.696;2022-10-18T08:44:37;16.10;86.30
73777;DHT22;62088;50.240;2.696;2022-10-18T08:47:17;16.10;86.30
73777;DHT22;62088;50.240;2.696;2022-10-18T08:49:47;16.10;86.20
73777;DHT22;62088;50.240;2.696;2022-10-18T08:52:34;16.10;86.10
73777;DHT22;62088;50.240;2.696;2022-10-18T08:55:13;16.20;86.00
73777;DHT22;62088;50.240;2.696;2022-10-18T08:57:42;16.20;85.90
73777;DHT22;62088;50.240;2.696;2022-10-18T09:00:17;16.20;85.90
73777;DHT22;62088;50.240;2.696;2022-10-18T09:22:13;16.40;85.30
73777;DHT22;62088;50.240;2.696;2022-10-18T09:24:45;16.40;85.30
73777;DHT22;62088;50.240;2.696;2022-10-18T09:27:19;16.40;85.30
73777;DHT22;62088;50.240;2.696;2022-10-18T09:35:24;16.50;85.20
73777;DHT22;62088;50.240;2.696;2022-10-18T09:37:52;16.50;85.20
73777;DHT22;62088;50.240;2.696;2022-10-18T09:40:27;16.60;85.10
73777;DHT22;62088;50.240;2.696;2022-10-18T09:43:09;16.60;85.10
73777;DHT22;62088;50.240;2.696;2022-10-18T09:45:41;16.70;85.20
73777;DHT22;62088;50.240;2.696;2022-10-18T09:51:09;16.90;85.20
73777;DHT22;62088;50.240;2.696;2022-10-18T09:56:36;17.10;85.20
73777;DHT22;62088;50.240;2.696;2022-10-18T10:01:55;17.30;84.70
73777;DHT22;62088;50.240;2.696;2022-10-18T10:04:22;17.30;84.50
73777;DHT22;62088;50.240;2.696;2022-10-18T10:06:50;17.40;84.30
73777;DHT22;62088;50.240;2.696;2022-10-18T10:09:25;17.40;84.10
73777;DHT22;62088;50.240;2.696;2022-10-18T10:11:52;17.50;83.90
73777;DHT22;62088;50.240;2.696;2022-10-18T10:14:23;17.50;83.70
73777;DHT22;62088;50.240;2.696;2022-10-18T10:16:59;17.60;83.50
73777;DHT22;62088;50.240;2.696;2022-10-18T10:19:32;17.60;83.40
73777;DHT22;62088;50.240;2.696;2022-10-18T10:22:06;17.70;83.10
73777;DHT22;62088;50.240;2.696;2022-10-18T10:24:51;17.80;82.80
73777;DHT22;62088;50.240;2.696;2022-10-18T10:27:25;17.80;82.70
73777;DHT22;62088;50.240;2.696;2022-10-18T10:29:57;17.90;82.60
73777;DHT22;62088;50.240;2.696;2022-10-18T10:32:40;17.90;82.40
73777;DHT22;62088;50.240;2.696;2022-10-18T10:35:39;17.90;82.00
73777;DHT22;62088;50.240;2.696;2022-10-18T10:38:23;17.90;81.90
73777;DHT22;62088;50.240;2.696;2022-10-18T10:40:51;18.00;81.90
73777;DHT22;62088;50.240;2.696;2022-10-18T10:46:15;18.00;81.70
73777;DHT22;62088;50.240;2.696;2022-10-18T10:48:51;18.10;81.50
73777;DHT22;62088;50.240;2.696;2022-10-18T10:51:40;18.10;81.30
73777;DHT22;62088;50.240;2.696;2022-10-18T10:56:57;18.20;81.20
73777;DHT22;62088;50.240;2.696;2022-10-18T10:59:29;18.20;81.30
73777;DHT22;62088;50.240;2.696;2022-10-18T11:02:33;18.30;81.40
73777;DHT22;62088;50.240;2.696;2022-10-18T11:05:24;18.40;81.20
73777;DHT22;62088;50.240;2.696;2022-10-18T11:08:10;18.40;81.10
73777;DHT22;62088;50.240;2.696;2022-10-18T11:10:52;18.40;80.90
73777;DHT22;62088;50.240;2.696;2022-10-18T11:13:23;18.50;80.80
73777;DHT22;62088;50.240;2.696;2022-10-18T11:15:59;18.50;80.70
73777;DHT22;62088;50.240;2.696;2022-10-18T11:18:35;18.60;80.60
73777;DHT22;62088;50.240;2.696;2022-10-18T11:21:32;18.60;80.50
73777;DHT22;62088;50.240;2.696;2022-10-18T11:24:01;18.60;80.40
73777;DHT22;62088;50.240;2.696;2022-10-18T11:27:05;18.60;80.20
73777;DHT22;62088;50.240;2.696;2022-10-18T11:32:37;18.60;80.30
73777;DHT22;62088;50.240;2.696;2022-10-18T11:40:48;18.80;80.00
73777;DHT22;62088;50.240;2.696;2022-10-18T11:43:37;18.90;79.50
73777;DHT22;62088;50.240;2.696;2022-10-18T11:51:58;19.30;78.50
73777;DHT22;62088;50.240;2.696;2022-10-18T12:00:26;19.60;76.20
73777;DHT22;62088;50.240;2.696;2022-10-18T12:03:10;19.80;75.50
73777;DHT22;62088;50.240;2.696;2022-10-18T12:05:43;19.90;75.60
73777;DHT22;62088;50.240;2.696;2022-10-18T12:08:15;20.00;75.50
73777;DHT22;62088;50.240;2.696;2022-10-18T12:10:49;20.10;75.50
73777;DHT22;62088;50.240;2.696;2022-10-18T12:13:35;20.20;75.10
73777;DHT22;62088;50.240;2.696;2022-10-18T12:16:04;20.30;74.20
73777;DHT22;62088;50.240;2.696;2022-10-18T12:18:33;20.40;73.90
73777;DHT22;62088;50.240;2.696;2022-10-18T12:21:02;20.50;74.10
73777;DHT22;62088;50.240;2.696;2022-10-18T12:23:33;20.50;73.40
73777;DHT22;62088;50.240;2.696;2022-10-18T12:26:05;20.60;73.70
73777;DHT22;62088;50.240;2.696;2022-10-18T12:31:37;20.80;72.60
73777;DHT22;62088;50.240;2.696;2022-10-18T12:34:31;20.80;72.30
73777;DHT22;62088;50.240;2.696;2022-10-18T12:40:10;20.80;71.70
73777;DHT22;62088;50.240;2.696;2022-10-18T12:42:46;20.80;71.70
73777;DHT22;62088;50.240;2.696;2022-10-18T12:45:29;20.80;70.90
73777;DHT22;62088;50.240;2.696;2022-10-18T12:48:04;20.80;70.60
73777;DHT22;62088;50.240;2.696;2022-10-18T12:55:49;20.90;70.50
73777;DHT22;62088;50.240;2.696;2022-10-18T12:58:21;20.90;70.60
73777;DHT22;62088;50.240;2.696;2022-10-18T13:13:47;21.40;68.30
73777;DHT22;62088;50.240;2.696;2022-10-18T13:21:55;21.30;68.60
73777;DHT22;62088;50.240;2.696;2022-10-18T13:25:03;21.30;68.40
73777;DHT22;62088;50.240;2.696;2022-10-18T13:27:51;21.20;68.60
73777;DHT22;62088;50.240;2.696;2022-10-18T13:30:45;21.20;68.60
73777;DHT22;62088;50.240;2.696;2022-10-18T13:33:42;21.10;68.30
73777;DHT22;62088;50.240;2.696;2022-10-18T13:36:21;21.10;68.50
73777;DHT22;62088;50.240;2.696;2022-10-18T13:41:27;21.10;68.90
73777;DHT22;62088;50.240;2.696;2022-10-18T13:44:22;21.20;69.00
73777;DHT22;62088;50.240;2.696;2022-10-18T13:55:20;21.30;67.80
73777;DHT22;62088;50.240;2.696;2022-10-18T14:06:42;21.30;66.70
73777;DHT22;62088;50.240;2.696;2022-10-18T14:09:22;21.40;67.00
73777;DHT22;62088;50.240;2.696;2022-10-18T14:14:45;21.40;66.70
73777;DHT22;62088;50.240;2.696;2022-10-18T14:17:50;21.40;66.40
73777;DHT22;62088;50.240;2.696;2022-10-18T14:25:36;21.50;66.70
73777;DHT22;62088;50.240;2.696;2022-10-18T14:28:11;21.60;66.70
73777;DHT22;62088;50.240;2.696;2022-10-18T14:36:36;21.60;66.70
73777;DHT22;62088;50.240;2.696;2022-10-18T14:39:06;21.60;66.80
73777;DHT22;62088;50.240;2.696;2022-10-18T14:41:52;21.60;66.60
73777;DHT22;62088;50.240;2.696;2022-10-18T14:44:27;21.60;66.10
73777;DHT22;62088;50.240;2.696;2022-10-18T14:49:25;21.60;66.30
73777;DHT22;62088;50.240;2.696;2022-10-18T14:51:55;21.60;66.10
73777;DHT22;62088;50.240;2.696;2022-10-18T14:54:24;21.50;65.90
73777;DHT22;62088;50.240;2.696;2022-10-18T14:57:01;21.50;65.80
73777;DHT22;62088;50.240;2.696;2022-10-18T14:59:32;21.50;65.80
73777;DHT22;62088;50.240;2.696;2022-10-18T15:02:03;21.50;66.10
73777;DHT22;62088;50.240;2.696;2022-10-18T15:04:33;21.40;66.30
73777;DHT22;62088;50.240;2.696;2022-10-18T15:07:05;21.40;66.70
73777;DHT22;62088;50.240;2.696;2022-10-18T15:09:34;21.40;67.00
73777;DHT22;62088;50.240;2.696;2022-10-18T15:12:04;21.40;67.10
73777;DHT22;62088;50.240;2.696;2022-10-18T15:14:33;21.40;67.10
73777;DHT22;62088;50.240;2.696;2022-10-18T15:17:20;21.30;67.10
73777;DHT22;62088;50.240;2.696;2022-10-18T15:19:55;21.30;67.30
73777;DHT22;62088;50.240;2.696;2022-10-18T15:22:28;21.20;67.40
73777;DHT22;62088;50.240;2.696;2022-10-18T15:27:34;21.10;67.50
73777;DHT22;62088;50.240;2.696;2022-10-18T15:30:27;21.00;67.70
73777;DHT22;62088;50.240;2.696;2022-10-18T15:32:58;20.90;67.90
73777;DHT22;62088;50.240;2.696;2022-10-18T15:35:27;20.90;68.10
73777;DHT22;62088;50.240;2.696;2022-10-18T15:37:59;20.80;68.10
73777;DHT22;62088;50.240;2.696;2022-10-18T15:40:33;20.70;68.00
73777;DHT22;62088;50.240;2.696;2022-10-18T15:45:58;20.50;68.10
73777;DHT22;62088;50.240;2.696;2022-10-18T15:48:33;20.40;68.20
73777;DHT22;62088;50.240;2.696;2022-10-18T15:51:03;20.30;68.40
73777;DHT22;62088;50.240;2.696;2022-10-18T15:53:51;20.20;68.50
73777;DHT22;62088;50.240;2.696;2022-10-18T15:56:33;20.10;68.60
73777;DHT22;62088;50.240;2.696;2022-10-18T15:59:04;20.10;68.80
73777;DHT22;62088;50.240;2.696;2022-10-18T16:04:07;19.90;69.00
73777;DHT22;62088;50.240;2.696;2022-10-18T16:06:34;19.90;69.10
73777;DHT22;62088;50.240;2.696;2022-10-18T16:09:04;19.80;69.30
73777;DHT22;62088;50.240;2.696;2022-10-18T16:11:31;19.80;69.40
73777;DHT22;62088;50.240;2.696;2022-10-18T16:13:58;19.70;69.50
73777;DHT22;62088;50.240;2.696;2022-10-18T16:16:27;19.60;69.60
73777;DHT22;62088;50.240;2.696;2022-10-18T16:18:55;19.60;69.80
73777;DHT22;62088;50.240;2.696;2022-10-18T16:21:26;19.50;70.00
73777;DHT22;62088;50.240;2.696;2022-10-18T16:23:54;19.50;70.20
73777;DHT22;62088;50.240;2.696;2022-10-18T16:26:22;19.40;70.40
73777;DHT22;62088;50.240;2.696;2022-10-18T16:28:50;19.40;70.50
73777;DHT22;62088;50.240;2.696;2022-10-18T16:31:19;19.30;70.60
73777;DHT22;62088;50.240;2.696;2022-10-18T16:33:48;19.20;70.70
73777;DHT22;62088;50.240;2.696;2022-10-18T16:36:21;19.20;70.90
73777;DHT22;62088;50.240;2.696;2022-10-18T16:38:50;19.10;71.00
73777;DHT22;62088;50.240;2.696;2022-10-18T16:41:17;19.10;71.10
73777;DHT22;62088;50.240;2.696;2022-10-18T16:43:45;19.00;71.30
73777;DHT22;62088;50.240;2.696;2022-10-18T16:46:19;18.90;71.40
73777;DHT22;62088;50.240;2.696;2022-10-18T16:48:47;18.90;71.60
73777;DHT22;62088;50.240;2.696;2022-10-18T16:51:15;18.90;71.70
73777;DHT22;62088;50.240;2.696;2022-10-18T16:53:42;18.80;71.80
73777;DHT22;62088;50.240;2.696;2022-10-18T16:56:27;18.70;71.80
73777;DHT22;62088;50.240;2.696;2022-10-18T16:58:56;18.60;71.90
73777;DHT22;62088;50.240;2.696;2022-10-18T17:01:24;18.60;72.00
73777;DHT22;62088;50.240;2.696;2022-10-18T17:03:52;18.50;72.00
73777;DHT22;62088;50.240;2.696;2022-10-18T17:06:22;18.40;72.10
73777;DHT22;62088;50.240;2.696;2022-10-18T17:08:50;18.40;72.20
73777;DHT22;62088;50.240;2.696;2022-10-18T17:11:19;18.40;72.20
73777;DHT22;62088;50.240;2.696;2022-10-18T17:13:46;18.30;72.30
73777;DHT22;62088;50.240;2.696;2022-10-18T17:16:28;18.30;72.40
73777;DHT22;62088;50.240;2.696;2022-10-18T17:18:58;18.20;72.60
73777;DHT22;62088;50.240;2.696;2022-10-18T17:21:27;18.10;72.80
73777;DHT22;62088;50.240;2.696;2022-10-18T17:23:55;18.10;72.80
73777;DHT22;62088;50.240;2.696;2022-10-18T17:26:26;18.00;72.80
73777;DHT22;62088;50.240;2.696;2022-10-18T17:28:57;17.90;73.00
73777;DHT22;62088;50.240;2.696;2022-10-18T17:31:27;17.90;73.20
73777;DHT22;62088;50.240;2.696;2022-10-18T17:33:54;17.90;73.40
73777;DHT22;62088;50.240;2.696;2022-10-18T17:36:21;17.80;73.60
73777;DHT22;62088;50.240;2.696;2022-10-18T17:38:50;17.70;73.60
73777;DHT22;62088;50.240;2.696;2022-10-18T17:41:17;17.60;73.70
73777;DHT22;62088;50.240;2.696;2022-10-18T17:43:44;17.60;73.80
73777;DHT22;62088;50.240;2.696;2022-10-18T17:46:12;17.60;73.80
73777;DHT22;62088;50.240;2.696;2022-10-18T17:48:40;17.50;73.90
73777;DHT22;62088;50.240;2.696;2022-10-18T17:51:10;17.50;73.90
73777;DHT22;62088;50.240;2.696;2022-10-18T17:53:37;17.40;73.90
73777;DHT22;62088;50.240;2.696;2022-10-18T17:56:05;17.40;74.10
73777;DHT22;62088;50.240;2.696;2022-10-18T17:58:33;17.30;74.30
73777;DHT22;62088;50.240;2.696;2022-10-18T18:01:10;17.20;74.60
73777;DHT22;62088;50.240;2.696;2022-10-18T18:03:37;17.20;74.70
73777;DHT22;62088;50.240;2.696;2022-10-18T18:06:15;17.10;74.90
73777;DHT22;62088;50.240;2.696;2022-10-18T18:08:43;17.00;75.10
73777;DHT22;62088;50.240;2.696;2022-10-18T18:11:11;16.90;75.30
73777;DHT22;62088;50.240;2.696;2022-10-18T18:13:38;16.90;75.50
73777;DHT22;62088;50.240;2.696;2022-10-18T18:18:42;16.90;75.60
73777;DHT22;62088;50.240;2.696;2022-10-18T18:21:09;16.80;75.60
73777;DHT22;62088;50.240;2.696;2022-10-18T18:23:36;16.80;75.60
73777;DHT22;62088;50.240;2.696;2022-10-18T18:26:04;16.80;75.70
73777;DHT22;62088;50.240;2.696;2022-10-18T18:28:32;16.70;75.70
73777;DHT22;62088;50.240;2.696;2022-10-18T18:33:40;16.70;76.00
73777;DHT22;62088;50.240;2.696;2022-10-18T18:36:07;16.60;76.20
73777;DHT22;62088;50.240;2.696;2022-10-18T18:38:37;16.60;76.50
73777;DHT22;62088;50.240;2.696;2022-10-18T18:43:33;16.50;76.90
73777;DHT22;62088;50.240;2.696;2022-10-18T18:46:01;16.50;77.00
73777;DHT22;62088;50.240;2.696;2022-10-18T18:48:30;16.50;77.10